Time;durP1;ratioP1;P1;durP2;ratioP2;P2;SDS_P1;SDS_P2;PMS_P1;PMS_P2;Temp;Humidity;BMP_temperature;BMP_pressure;BME280_temperature;BME280_humidity;BME280_pressure;Samples;Min_cycle;Max_cycle;Signal;HPM_P1;HPM_P2
2023/10/15 00:00:12;;;;;;;;;;;8.00;99.90;;;;;;5094031;28;19966;-32
2023/10/15 00:02:39;;;;;;;;;;;8.00;99.90;;;;;;5090968;28;20284;-33
2023/10/15 00:05:07;;;;;;;;;;;8.00;99.90;;;;;;5074315;28;20030;-31
2023/10/15 00:07:34;;;;;;;;;;;8.00;99.90;;;;;;5108460;28;19938;-32
2023/10/15 00:10:01;;;;;;;;;;;8.00;99.90;;;;;;5094575;28;19938;-32
2023/10/15 00:12:30;;;;;;;;;;;8.00;99.90;;;;;;5111345;28;19938;-31
2023/10/15 00:14:58;;;;;;;;;;;8.00;99.90;;;;;;5094289;28;20049;-31
2023/10/15 00:17:27;;;;;;;;;;;7.90;99.90;;;;;;5112265;28;20034;-32
2023/10/15 00:19:55;;;;;;;;;;;7.90;99.90;;;;;;5092199;28;20027;-31
2023/10/15 00:22:21;;;;;;;;;;;7.90;99.90;;;;;;5094535;28;19990;-31
2023/10/15 00:24:48;;;;;;;;;;;7.90;99.90;;;;;;5097938;28;19940;-31
2023/10/15 00:27:16;;;;;;;;;;;7.90;99.90;;;;;;5116157;28;19984;-31
2023/10/15 00:29:43;;;;;;;;;;;8.00;99.90;;;;;;5096856;28;19938;-31
2023/10/15 00:32:12;;;;;;;;;;;7.90;99.90;;;;;;5097693;28;19958;-32
2023/10/15 00:34:39;;;;;;;;;;;7.90;99.90;;;;;;5115540;28;19997;-31
2023/10/15 00:37:06;;;;;;;;;;;7.90;99.90;;;;;;5096611;28;20517;-32
2023/10/15 00:39:37;;;;;;;;;;;7.90;99.90;;;;;;5114995;28;19938;-31
2023/10/15 00:42:03;;;;;;;;;;;8.00;99.90;;;;;;5097545;28;19939;-31
2023/10/15 00:44:30;;;;;;;;;;;8.00;99.90;;;;;;5097866;28;20008;-31
2023/10/15 00:46:57;;;;;;;;;;;8.00;99.90;;;;;;5097107;28;20030;-33
2023/10/15 00:49:26;;;;;;;;;;;8.00;99.90;;;;;;5115591;28;20280;-35
2023/10/15 00:51:53;;;;;;;;;;;8.00;99.90;;;;;;5114177;28;20370;-33
2023/10/15 00:54:19;;;;;;;;;;;8.00;99.90;;;;;;5116034;28;19934;-32
2023/10/15 00:56:46;;;;;;;;;;;8.00;99.90;;;;;;5095888;28;19959;-32
2023/10/15 00:59:18;;;;;;;;;;;8.00;99.90;;;;;;5097556;28;19941;-32
2023/10/15 01:01:53;;;;;;;;;;;8.00;99.90;;;;;;5097252;28;19936;-33
2023/10/15 01:04:24;;;;;;;;;;;8.10;99.90;;;;;;5097221;28;19948;-32
2023/10/15 01:06:55;;;;;;;;;;;8.10;99.90;;;;;;5114430;28;20279;-32
2023/10/15 01:09:27;;;;;;;;;;;8.10;99.90;;;;;;5096879;28;19949;-34
2023/10/15 01:11:55;;;;;;;;;;;8.10;99.90;;;;;;5096809;28;20039;-32
2023/10/15 01:14:28;;;;;;;;;;;8.10;99.90;;;;;;5114975;28;19938;-32
2023/10/15 01:16:54;;;;;;;;;;;8.10;99.90;;;;;;5089772;28;20007;-33
2023/10/15 01:19:31;;;;;;;;;;;8.10;99.90;;;;;;5106875;28;19940;-33
2023/10/15 01:22:01;;;;;;;;;;;8.10;99.90;;;;;;5113431;28;19940;-32
2023/10/15 01:24:28;;;;;;;;;;;8.00;99.90;;;;;;5095530;28;20417;-32
2023/10/15 01:27:08;;;;;;;;;;;7.90;99.90;;;;;;5095962;28;20422;-33
2023/10/15 01:29:35;;;;;;;;;;;7.80;99.90;;;;;;5096633;28;20356;-33
2023/10/15 01:32:03;;;;;;;;;;;7.90;99.90;;;;;;5096794;28;20392;-31
2023/10/15 01:34:31;;;;;;;;;;;7.90;99.90;;;;;;5114675;28;19939;-32
2023/10/15 01:36:57;;;;;;;;;;;7.90;99.90;;;;;;5095328;28;20574;-33
2023/10/15 01:39:32;;;;;;;;;;;7.90;99.90;;;;;;5096514;28;19947;-33
2023/10/15 01:42:34;;;;;;;;;;;8.00;99.90;;;;;;5111277;28;20247;-32
2023/10/15 01:45:16;;;;;;;;;;;7.90;99.90;;;;;;5105086;28;20008;-32
2023/10/15 01:47:57;;;;;;;;;;;7.90;99.90;;;;;;5096130;28;19950;-32
2023/10/15 01:50:24;;;;;;;;;;;7.90;99.90;;;;;;5096019;28;19979;-31
2023/10/15 01:52:54;;;;;;;;;;;7.80;99.90;;;;;;5114721;28;19938;-31
2023/10/15 01:55:28;;;;;;;;;;;7.90;99.90;;;;;;5095952;28;20480;-31
2023/10/15 01:58:00;;;;;;;;;;;7.90;99.90;;;;;;5095336;28;19950;-31
2023/10/15 02:00:38;;;;;;;;;;;7.90;99.90;;;;;;5096351;28;19991;-31
2023/10/15 02:03:06;;;;;;;;;;;7.90;99.90;;;;;;5113502;28;19947;-31
2023/10/15 02:05:41;;;;;;;;;;;7.90;99.90;;;;;;5113035;27;19942;-30
2023/10/15 02:08:07;;;;;;;;;;;7.80;99.90;;;;;;5094702;28;20014;-31
2023/10/15 02:10:35;;;;;;;;;;;7.80;99.90;;;;;;5096090;28;20368;-31
2023/10/15 02:13:04;;;;;;;;;;;7.80;99.90;;;;;;5096257;28;19964;-33
2023/10/15 02:15:32;;;;;;;;;;;7.70;99.90;;;;;;5094952;28;20075;-31
2023/10/15 02:18:00;;;;;;;;;;;7.70;99.90;;;;;;5096058;28;19947;-31
2023/10/15 02:20:42;;;;;;;;;;;7.70;99.90;;;;;;5095637;28;19941;-32
2023/10/15 02:23:09;;;;;;;;;;;7.70;99.90;;;;;;5095914;28;19944;-31
2023/10/15 02:25:41;;;;;;;;;;;7.60;99.90;;;;;;5094286;28;19935;-32
2023/10/15 02:28:10;;;;;;;;;;;7.60;99.90;;;;;;5095988;28;20000;-31
2023/10/15 02:30:40;;;;;;;;;;;7.40;99.90;;;;;;5095648;28;20397;-32
2023/10/15 02:33:07;;;;;;;;;;;7.60;99.90;;;;;;5113432;28;19943;-31
2023/10/15 02:35:39;;;;;;;;;;;7.50;99.90;;;;;;5091039;28;20000;-32
2023/10/15 02:38:10;;;;;;;;;;;7.50;99.90;;;;;;5075663;28;19940;-33
2023/10/15 02:40:55;;;;;;;;;;;7.50;99.90;;;;;;5075060;28;20422;-32
2023/10/15 02:43:25;;;;;;;;;;;7.50;99.90;;;;;;5110177;28;19934;-32
2023/10/15 02:45:52;;;;;;;;;;;7.50;99.90;;;;;;5105561;28;19956;-33
2023/10/15 02:48:21;;;;;;;;;;;7.50;99.90;;;;;;5093159;28;20441;-32
2023/10/15 02:50:58;;;;;;;;;;;7.40;99.90;;;;;;5083588;28;19953;-32
2023/10/15 02:53:26;;;;;;;;;;;7.40;99.90;;;;;;5088871;28;19931;-33
2023/10/15 02:55:52;;;;;;;;;;;7.40;99.90;;;;;;5077157;28;20045;-32
2023/10/15 02:58:24;;;;;;;;;;;7.30;99.90;;;;;;5080621;28;20041;-32
2023/10/15 03:00:53;;;;;;;;;;;7.30;99.90;;;;;;5075090;28;19993;-32
2023/10/15 03:03:23;;;;;;;;;;;7.30;99.90;;;;;;5090205;28;19984;-32
2023/10/15 03:05:50;;;;;;;;;;;7.30;99.90;;;;;;5074224;28;19938;-33
2023/10/15 03:08:20;;;;;;;;;;;7.20;99.90;;;;;;5092693;28;19968;-32
2023/10/15 03:10:50;;;;;;;;;;;7.20;99.90;;;;;;5075120;28;19967;-32
2023/10/15 03:13:18;;;;;;;;;;;7.30;99.90;;;;;;5092325;28;19965;-32
2023/10/15 03:15:48;;;;;;;;;;;7.20;99.90;;;;;;5065883;28;20050;-32
2023/10/15 03:18:22;;;;;;;;;;;7.20;99.90;;;;;;5074595;28;19924;-31
2023/10/15 03:20:49;;;;;;;;;;;7.20;99.90;;;;;;5074529;28;19924;-32
2023/10/15 03:23:17;;;;;;;;;;;7.20;99.90;;;;;;5074698;28;19962;-32
2023/10/15 03:25:47;;;;;;;;;;;7.20;99.90;;;;;;5100951;28;20398;-32
2023/10/15 03:28:14;;;;;;;;;;;7.20;99.90;;;;;;5107219;28;19924;-32
2023/10/15 03:30:44;;;;;;;;;;;7.10;99.90;;;;;;5092548;28;20008;-31
2023/10/15 03:33:11;;;;;;;;;;;7.10;99.90;;;;;;5067135;28;19954;-31
2023/10/15 03:35:45;;;;;;;;;;;7.10;99.90;;;;;;5072356;28;20017;-32
2023/10/15 03:38:14;;;;;;;;;;;7.00;99.90;;;;;;5054676;28;20345;-32
2023/10/15 03:40:43;;;;;;;;;;;7.00;99.90;;;;;;5070193;28;20397;-31
2023/10/15 03:43:16;;;;;;;;;;;7.00;99.90;;;;;;5091511;28;20007;-31
2023/10/15 03:45:51;;;;;;;;;;;7.00;99.90;;;;;;5090659;28;20048;-31
2023/10/15 03:48:21;;;;;;;;;;;6.90;99.90;;;;;;5112961;28;19966;-31
2023/10/15 03:50:55;;;;;;;;;;;7.00;99.90;;;;;;5094560;28;19966;-31
2023/10/15 03:53:22;;;;;;;;;;;6.90;99.90;;;;;;5093068;28;19924;-31
2023/10/15 03:55:50;;;;;;;;;;;6.90;99.90;;;;;;5105646;28;19963;-31
2023/10/15 03:58:18;;;;;;;;;;;6.90;99.90;;;;;;5109580;27;19937;-32
2023/10/15 04:00:47;;;;;;;;;;;6.90;99.90;;;;;;5088246;28;19928;-31
2023/10/15 04:03:18;;;;;;;;;;;6.80;99.90;;;;;;5113379;28;19923;-31
2023/10/15 04:05:53;;;;;;;;;;;6.80;99.90;;;;;;5110359;27;19957;-32
2023/10/15 04:08:20;;;;;;;;;;;6.80;99.90;;;;;;5098576;28;19924;-31
2023/10/15 04:10:54;;;;;;;;;;;6.70;99.90;;;;;;5115658;27;20014;-32
2023/10/15 04:13:21;;;;;;;;;;;6.70;99.90;;;;;;5113274;27;20024;-32
2023/10/15 04:15:48;;;;;;;;;;;6.70;99.90;;;;;;5100944;28;19932;-32
2023/10/15 04:18:15;;;;;;;;;;;6.70;99.90;;;;;;5112117;28;19977;-32
2023/10/15 04:20:42;;;;;;;;;;;6.70;99.90;;;;;;5112851;27;19961;-31
2023/10/15 04:23:12;;;;;;;;;;;6.60;99.90;;;;;;5098003;28;19923;-31
2023/10/15 04:25:38;;;;;;;;;;;6.50;99.90;;;;;;5133784;27;19938;-31
2023/10/15 04:28:12;;;;;;;;;;;6.60;99.90;;;;;;5116834;27;19995;-32
2023/10/15 04:30:39;;;;;;;;;;;6.50;99.90;;;;;;5116554;27;19962;-33
2023/10/15 04:33:13;;;;;;;;;;;6.50;99.90;;;;;;5082782;28;20007;-31
2023/10/15 04:35:40;;;;;;;;;;;6.40;99.90;;;;;;5092328;28;20368;-32
2023/10/15 04:38:18;;;;;;;;;;;6.40;99.90;;;;;;5115908;27;20009;-32
2023/10/15 04:40:59;;;;;;;;;;;6.50;99.90;;;;;;5098147;28;19923;-32
2023/10/15 04:43:26;;;;;;;;;;;6.50;99.90;;;;;;5108148;28;19931;-32
2023/10/15 04:45:54;;;;;;;;;;;6.50;99.90;;;;;;5117203;27;20334;-31
2023/10/15 04:48:26;;;;;;;;;;;6.60;99.90;;;;;;5118595;27;20014;-32
2023/10/15 04:50:53;;;;;;;;;;;6.60;99.90;;;;;;5131092;27;19930;-32
2023/10/15 04:53:24;;;;;;;;;;;6.60;99.90;;;;;;5116023;28;19973;-32
2023/10/15 04:55:52;;;;;;;;;;;6.60;99.90;;;;;;5095631;28;20441;-33
2023/10/15 04:58:19;;;;;;;;;;;6.60;99.90;;;;;;5130413;27;19924;-33
2023/10/15 05:00:47;;;;;;;;;;;6.60;99.90;;;;;;5096813;28;19923;-32
2023/10/15 05:03:14;;;;;;;;;;;6.60;99.90;;;;;;5107403;27;20021;-33
2023/10/15 05:05:42;;;;;;;;;;;6.60;99.90;;;;;;5093075;28;19924;-31
2023/10/15 05:08:10;;;;;;;;;;;6.70;99.90;;;;;;5075392;28;19924;-32
2023/10/15 05:10:44;;;;;;;;;;;6.70;99.90;;;;;;5113411;27;19935;-31
2023/10/15 05:13:11;;;;;;;;;;;6.80;99.90;;;;;;5094244;28;19923;-33
2023/10/15 05:15:38;;;;;;;;;;;6.80;99.90;;;;;;5084503;27;19967;-31
2023/10/15 05:18:05;;;;;;;;;;;6.70;99.90;;;;;;5097110;28;19924;-31
2023/10/15 05:20:32;;;;;;;;;;;6.70;99.90;;;;;;5093344;28;20295;-33
2023/10/15 05:22:59;;;;;;;;;;;6.80;99.90;;;;;;5089523;28;19963;-32
2023/10/15 05:25:25;;;;;;;;;;;6.70;99.90;;;;;;5102669;28;19929;-32
2023/10/15 05:27:53;;;;;;;;;;;6.80;99.90;;;;;;5097601;28;20408;-32
2023/10/15 05:30:20;;;;;;;;;;;6.80;99.90;;;;;;5105288;28;19940;-32
2023/10/15 05:32:48;;;;;;;;;;;6.80;99.90;;;;;;5099858;28;20372;-33
2023/10/15 05:35:17;;;;;;;;;;;6.80;99.90;;;;;;5101146;28;19923;-32
2023/10/15 05:37:44;;;;;;;;;;;6.80;99.90;;;;;;5108289;27;19924;-32
2023/10/15 05:40:12;;;;;;;;;;;6.80;99.90;;;;;;5094194;28;20351;-32
2023/10/15 05:42:39;;;;;;;;;;;6.80;99.90;;;;;;5108883;28;20395;-32
2023/10/15 05:45:07;;;;;;;;;;;6.80;99.90;;;;;;5099207;27;20291;-32
2023/10/15 05:47:34;;;;;;;;;;;6.80;99.90;;;;;;5113864;28;20038;-32
2023/10/15 05:50:01;;;;;;;;;;;6.80;99.90;;;;;;5113119;28;19963;-30
2023/10/15 05:52:27;;;;;;;;;;;6.80;99.90;;;;;;5116213;27;19923;-32
2023/10/15 05:54:54;;;;;;;;;;;6.80;99.90;;;;;;5110361;27;19972;-32
2023/10/15 05:57:24;;;;;;;;;;;6.80;99.90;;;;;;5096740;28;20371;-31
2023/10/15 05:59:50;;;;;;;;;;;6.80;99.90;;;;;;5113981;28;19923;-32
2023/10/15 06:02:18;;;;;;;;;;;6.80;99.90;;;;;;5099509;28;20380;-32
2023/10/15 06:04:46;;;;;;;;;;;6.80;99.90;;;;;;5097267;28;19946;-31
2023/10/15 06:07:13;;;;;;;;;;;6.70;99.90;;;;;;5125096;27;20340;-32
2023/10/15 06:09:40;;;;;;;;;;;6.80;99.90;;;;;;5123572;27;19985;-31
2023/10/15 06:12:06;;;;;;;;;;;6.80;99.90;;;;;;5096137;28;20393;-31
2023/10/15 06:14:38;;;;;;;;;;;6.80;99.90;;;;;;5112139;28;19988;-31
2023/10/15 06:17:05;;;;;;;;;;;6.80;99.90;;;;;;5122163;27;19927;-32
2023/10/15 06:19:34;;;;;;;;;;;6.80;99.90;;;;;;5102997;28;19924;-31
2023/10/15 06:22:05;;;;;;;;;;;6.80;99.90;;;;;;5109276;27;19924;-31
2023/10/15 06:24:32;;;;;;;;;;;6.80;99.90;;;;;;5115831;27;20375;-33
2023/10/15 06:27:00;;;;;;;;;;;6.70;99.90;;;;;;5134520;27;19931;-32
2023/10/15 06:29:26;;;;;;;;;;;6.80;99.90;;;;;;5116265;27;19968;-32
2023/10/15 06:31:53;;;;;;;;;;;6.80;99.90;;;;;;5096497;28;19932;-32
2023/10/15 06:34:20;;;;;;;;;;;6.80;99.90;;;;;;5094620;28;19924;-31
2023/10/15 06:36:50;;;;;;;;;;;6.70;99.90;;;;;;5106955;27;19927;-32
2023/10/15 06:39:17;;;;;;;;;;;6.80;99.90;;;;;;5122680;27;19927;-32
2023/10/15 06:41:43;;;;;;;;;;;6.80;99.90;;;;;;5097139;27;19935;-31
2023/10/15 06:44:10;;;;;;;;;;;6.80;99.90;;;;;;5096111;28;19976;-31
2023/10/15 06:46:38;;;;;;;;;;;6.80;99.90;;;;;;5128348;27;19931;-32
2023/10/15 06:49:07;;;;;;;;;;;6.80;99.90;;;;;;5112687;27;19968;-31
2023/10/15 06:51:34;;;;;;;;;;;6.80;99.90;;;;;;5120753;27;20004;-31
2023/10/15 06:54:02;;;;;;;;;;;6.90;99.90;;;;;;5101282;28;19931;-31
2023/10/15 06:56:29;;;;;;;;;;;6.80;99.90;;;;;;5105025;27;19961;-31
2023/10/15 06:58:55;;;;;;;;;;;6.90;99.90;;;;;;5116012;27;20341;-32
2023/10/15 07:01:26;;;;;;;;;;;6.80;99.90;;;;;;5095365;28;19928;-32
2023/10/15 07:03:53;;;;;;;;;;;6.90;99.90;;;;;;5093895;28;20014;-32
2023/10/15 07:06:19;;;;;;;;;;;6.90;99.90;;;;;;5118702;27;19977;-30
2023/10/15 07:08:46;;;;;;;;;;;6.90;99.90;;;;;;5108809;28;19971;-32
2023/10/15 07:11:14;;;;;;;;;;;6.90;99.90;;;;;;5085087;28;19962;-32
2023/10/15 07:13:41;;;;;;;;;;;6.90;99.90;;;;;;5109273;28;20315;-32
2023/10/15 07:16:07;;;;;;;;;;;6.90;99.90;;;;;;5122880;27;19927;-32
2023/10/15 07:18:34;;;;;;;;;;;6.90;99.90;;;;;;5106340;28;20315;-33
2023/10/15 07:21:01;;;;;;;;;;;6.90;99.90;;;;;;5100807;28;19936;-32
2023/10/15 07:23:27;;;;;;;;;;;6.90;99.90;;;;;;5093377;28;19938;-31
2023/10/15 07:25:54;;;;;;;;;;;6.90;99.90;;;;;;5080588;28;19932;-31
2023/10/15 07:28:22;;;;;;;;;;;6.90;99.90;;;;;;5105994;28;20018;-32
2023/10/15 07:30:49;;;;;;;;;;;6.90;99.90;;;;;;5104140;28;19934;-34
2023/10/15 07:33:16;;;;;;;;;;;6.90;99.90;;;;;;5093885;28;19927;-33
2023/10/15 07:35:43;;;;;;;;;;;7.00;99.90;;;;;;5094627;28;19923;-32
2023/10/15 07:38:12;;;;;;;;;;;7.00;99.90;;;;;;5110743;28;19981;-32
2023/10/15 07:40:39;;;;;;;;;;;7.00;99.90;;;;;;5084376;28;20022;-32
2023/10/15 07:43:08;;;;;;;;;;;7.00;99.90;;;;;;5107098;28;19930;-32
2023/10/15 07:45:37;;;;;;;;;;;7.10;99.90;;;;;;5092400;28;19924;-32
2023/10/15 07:48:05;;;;;;;;;;;7.10;99.90;;;;;;5090606;28;19970;-32
2023/10/15 07:50:31;;;;;;;;;;;7.10;99.90;;;;;;5073769;28;19931;-32
2023/10/15 07:52:58;;;;;;;;;;;7.00;99.90;;;;;;5073015;28;19925;-32
2023/10/15 07:55:26;;;;;;;;;;;7.00;99.90;;;;;;5069908;28;19924;-33
2023/10/15 07:57:52;;;;;;;;;;;7.10;99.90;;;;;;5071661;28;19924;-31
2023/10/15 08:00:23;;;;;;;;;;;7.10;99.90;;;;;;5070735;28;19986;-32
2023/10/15 08:02:52;;;;;;;;;;;7.10;99.90;;;;;;5090405;28;20406;-33
2023/10/15 08:05:20;;;;;;;;;;;7.10;99.90;;;;;;5071738;28;19924;-31
2023/10/15 08:07:48;;;;;;;;;;;7.20;99.90;;;;;;5091141;28;19924;-32
2023/10/15 08:10:17;;;;;;;;;;;7.20;99.90;;;;;;5091963;28;19924;-32
2023/10/15 08:12:44;;;;;;;;;;;7.40;99.90;;;;;;5091058;28;20384;-32
2023/10/15 08:15:11;;;;;;;;;;;7.50;99.90;;;;;;5091148;28;20311;-32
2023/10/15 08:17:37;;;;;;;;;;;7.70;99.90;;;;;;5072775;28;19928;-33
2023/10/15 08:20:09;;;;;;;;;;;7.90;99.90;;;;;;5073877;28;19983;-32
2023/10/15 08:22:35;;;;;;;;;;;8.00;99.90;;;;;;5074056;28;19931;-33
2023/10/15 08:25:02;;;;;;;;;;;8.20;99.90;;;;;;5072732;28;19924;-33
2023/10/15 08:27:29;;;;;;;;;;;8.30;99.90;;;;;;5072406;28;19950;-32
2023/10/15 08:29:57;;;;;;;;;;;8.40;99.90;;;;;;5091710;28;20368;-32
2023/10/15 08:32:26;;;;;;;;;;;8.40;99.90;;;;;;5088832;28;20021;-34
2023/10/15 08:34:53;;;;;;;;;;;8.50;99.90;;;;;;5072564;28;19931;-33
2023/10/15 08:37:22;;;;;;;;;;;8.60;99.90;;;;;;5072216;28;19928;-33
2023/10/15 08:39:49;;;;;;;;;;;8.70;99.90;;;;;;5073670;28;20004;-32
2023/10/15 08:42:18;;;;;;;;;;;8.80;99.90;;;;;;5071557;28;19928;-32
2023/10/15 08:44:45;;;;;;;;;;;8.90;99.90;;;;;;5100840;28;20101;-32
2023/10/15 08:47:13;;;;;;;;;;;9.10;99.90;;;;;;5097755;28;19931;-32
2023/10/15 08:49:41;;;;;;;;;;;9.10;99.90;;;;;;5097670;28;20299;-32
2023/10/15 08:52:07;;;;;;;;;;;9.20;99.90;;;;;;5114814;28;19932;-34
2023/10/15 08:54:38;;;;;;;;;;;9.30;99.90;;;;;;5079917;28;19932;-32
2023/10/15 08:57:06;;;;;;;;;;;9.40;99.90;;;;;;5096272;28;19991;-32
2023/10/15 08:59:33;;;;;;;;;;;9.50;99.90;;;;;;5097511;28;20009;-32
2023/10/15 09:01:59;;;;;;;;;;;9.60;99.90;;;;;;5097480;28;20325;-32
2023/10/15 09:04:27;;;;;;;;;;;9.70;99.90;;;;;;5113255;28;19954;-35
2023/10/15 09:06:54;;;;;;;;;;;9.80;99.90;;;;;;5115094;28;20357;-32
2023/10/15 09:09:20;;;;;;;;;;;9.90;99.90;;;;;;5097267;28;20379;-32
2023/10/15 09:11:50;;;;;;;;;;;10.00;99.90;;;;;;5114311;28;19924;-33
2023/10/15 09:14:17;;;;;;;;;;;10.00;99.90;;;;;;5113670;28;19977;-32
2023/10/15 09:16:46;;;;;;;;;;;10.10;99.90;;;;;;5095753;28;19981;-32
2023/10/15 09:19:13;;;;;;;;;;;10.20;99.90;;;;;;5092745;28;20391;-32
2023/10/15 09:21:40;;;;;;;;;;;10.30;99.90;;;;;;5097132;28;20053;-32
2023/10/15 09:24:07;;;;;;;;;;;10.30;99.90;;;;;;5096547;28;19923;-34
2023/10/15 09:26:36;;;;;;;;;;;10.40;99.90;;;;;;5096543;28;19957;-32
2023/10/15 09:29:07;;;;;;;;;;;10.40;99.90;;;;;;5115119;28;19924;-33
2023/10/15 09:31:33;;;;;;;;;;;10.50;99.90;;;;;;5097144;28;19931;-32
2023/10/15 09:34:00;;;;;;;;;;;10.50;99.90;;;;;;5095195;28;19930;-33
2023/10/15 09:36:27;;;;;;;;;;;10.60;99.90;;;;;;5113954;28;19924;-33
2023/10/15 09:38:56;;;;;;;;;;;10.60;99.90;;;;;;5095211;28;19950;-32
2023/10/15 09:41:25;;;;;;;;;;;10.60;99.90;;;;;;5094024;28;20287;-32
2023/10/15 09:43:52;;;;;;;;;;;10.70;99.90;;;;;;5094807;28;19924;-34
2023/10/15 09:46:20;;;;;;;;;;;10.70;99.90;;;;;;5092414;28;19928;-32
2023/10/15 09:48:47;;;;;;;;;;;10.80;99.90;;;;;;5079617;28;20304;-32
2023/10/15 09:51:14;;;;;;;;;;;10.90;99.90;;;;;;5095941;28;19931;-32
2023/10/15 09:53:42;;;;;;;;;;;10.90;99.90;;;;;;5113601;28;20318;-32
2023/10/15 09:56:12;;;;;;;;;;;11.00;99.90;;;;;;5093444;28;19957;-33
2023/10/15 09:58:39;;;;;;;;;;;11.00;99.90;;;;;;5095952;28;19927;-33
2023/10/15 10:01:09;;;;;;;;;;;11.00;99.90;;;;;;5112958;28;19954;-32
2023/10/15 10:03:47;;;;;;;;;;;10.90;99.90;;;;;;5093980;28;19924;-31
2023/10/15 10:06:15;;;;;;;;;;;10.90;99.90;;;;;;5093408;28;19946;-32
2023/10/15 10:08:46;;;;;;;;;;;11.00;99.90;;;;;;5113474;28;20383;-33
2023/10/15 10:11:16;;;;;;;;;;;11.00;99.90;;;;;;5095848;28;20359;-31
2023/10/15 10:14:02;;;;;;;;;;;11.00;99.90;;;;;;5110883;28;19923;-32
2023/10/15 10:16:30;;;;;;;;;;;10.90;99.90;;;;;;5094844;28;19971;-31
2023/10/15 10:18:58;;;;;;;;;;;10.70;99.90;;;;;;5113956;28;19964;-32
2023/10/15 10:21:28;;;;;;;;;;;10.50;99.90;;;;;;5095177;28;20198;-32
2023/10/15 10:23:56;;;;;;;;;;;10.40;99.90;;;;;;5094851;28;19924;-31
2023/10/15 10:26:27;;;;;;;;;;;10.30;99.90;;;;;;5095412;28;19963;-32
2023/10/15 10:28:55;;;;;;;;;;;10.20;99.90;;;;;;5093057;28;19970;-31
2023/10/15 10:31:21;;;;;;;;;;;10.10;99.90;;;;;;5089028;28;19927;-33
2023/10/15 10:33:49;;;;;;;;;;;10.00;99.90;;;;;;5094429;28;19976;-31
2023/10/15 10:36:17;;;;;;;;;;;9.90;99.90;;;;;;5113656;28;19924;-32
2023/10/15 10:38:43;;;;;;;;;;;9.80;99.90;;;;;;5095023;28;19959;-32
2023/10/15 10:41:13;;;;;;;;;;;9.80;99.90;;;;;;5112524;28;20036;-31
2023/10/15 10:43:40;;;;;;;;;;;9.80;99.90;;;;;;5091173;28;19928;-33
2023/10/15 10:46:07;;;;;;;;;;;9.80;99.90;;;;;;5111551;28;20006;-31
2023/10/15 10:48:37;;;;;;;;;;;9.70;99.90;;;;;;5095079;28;19924;-31
2023/10/15 10:51:13;;;;;;;;;;;9.70;99.90;;;;;;5095051;28;19923;-31
2023/10/15 10:53:41;;;;;;;;;;;9.70;99.90;;;;;;5092641;28;19981;-31
2023/10/15 10:56:08;;;;;;;;;;;9.80;99.90;;;;;;5111350;28;19924;-32
2023/10/15 10:58:36;;;;;;;;;;;9.90;99.90;;;;;;5095140;28;19977;-32
2023/10/15 11:01:06;;;;;;;;;;;10.00;99.90;;;;;;5109513;28;19969;-32
2023/10/15 11:03:33;;;;;;;;;;;10.20;99.90;;;;;;5112443;28;20299;-32
2023/10/15 11:06:00;;;;;;;;;;;10.40;99.90;;;;;;5093710;28;19928;-32
2023/10/15 11:08:27;;;;;;;;;;;10.50;99.90;;;;;;5109751;28;19965;-32
2023/10/15 11:10:59;;;;;;;;;;;10.60;99.90;;;;;;5093941;28;19928;-31
2023/10/15 11:13:26;;;;;;;;;;;10.80;99.90;;;;;;5111397;28;19923;-33
2023/10/15 11:15:53;;;;;;;;;;;10.90;99.90;;;;;;5091415;28;20181;-32
2023/10/15 11:18:23;;;;;;;;;;;11.00;99.90;;;;;;5094749;28;19946;-32
2023/10/15 11:20:52;;;;;;;;;;;11.10;99.90;;;;;;5094060;28;19953;-32
2023/10/15 11:23:18;;;;;;;;;;;11.30;99.90;;;;;;5092873;28;19994;-32
2023/10/15 11:25:45;;;;;;;;;;;11.40;99.90;;;;;;5112366;28;20342;-31
2023/10/15 11:28:15;;;;;;;;;;;11.50;99.90;;;;;;5094173;28;20143;-32
2023/10/15 11:30:42;;;;;;;;;;;11.50;99.90;;;;;;5112405;28;19931;-31
2023/10/15 11:33:09;;;;;;;;;;;11.50;99.90;;;;;;5112586;28;19924;-32
2023/10/15 11:35:36;;;;;;;;;;;11.50;99.90;;;;;;5110781;28;19924;-32
2023/10/15 11:38:07;;;;;;;;;;;11.50;99.90;;;;;;5092171;28;19967;-31
2023/10/15 11:40:36;;;;;;;;;;;11.60;99.90;;;;;;5112685;28;20391;-31
2023/10/15 11:43:04;;;;;;;;;;;11.70;99.90;;;;;;5112707;28;19923;-31
2023/10/15 11:45:32;;;;;;;;;;;11.80;99.90;;;;;;5094383;28;20002;-31
2023/10/15 11:47:59;;;;;;;;;;;11.90;99.90;;;;;;5110773;28;19927;-32
2023/10/15 11:50:26;;;;;;;;;;;11.90;99.90;;;;;;5094359;28;19923;-32
2023/10/15 11:52:53;;;;;;;;;;;12.00;99.90;;;;;;5109879;28;20423;-31
2023/10/15 11:55:21;;;;;;;;;;;12.00;99.90;;;;;;5093127;28;20283;-31
2023/10/15 11:57:50;;;;;;;;;;;12.00;99.90;;;;;;5094876;28;20014;-33
2023/10/15 12:00:22;;;;;;;;;;;11.90;99.90;;;;;;5093608;28;19928;-31
2023/10/15 12:02:51;;;;;;;;;;;11.70;99.90;;;;;;5093938;28;19963;-31
2023/10/15 12:05:18;;;;;;;;;;;11.70;99.90;;;;;;5112630;28;20044;-31
2023/10/15 12:07:45;;;;;;;;;;;11.80;99.90;;;;;;5092776;28;19965;-31
2023/10/15 12:10:15;;;;;;;;;;;11.90;99.90;;;;;;5094709;28;19950;-31
2023/10/15 12:12:42;;;;;;;;;;;11.90;99.90;;;;;;5111749;28;20033;-32
2023/10/15 12:15:09;;;;;;;;;;;12.00;99.90;;;;;;5110413;28;19923;-32
2023/10/15 12:17:35;;;;;;;;;;;12.00;99.90;;;;;;5106513;28;19924;-31
2023/10/15 12:20:06;;;;;;;;;;;12.00;99.90;;;;;;5094718;28;20395;-31
2023/10/15 12:22:33;;;;;;;;;;;12.10;99.90;;;;;;5112418;28;19924;-31
2023/10/15 12:25:00;;;;;;;;;;;12.10;99.90;;;;;;5095206;28;20295;-31
2023/10/15 12:27:28;;;;;;;;;;;12.10;99.90;;;;;;5097149;28;19931;-31
2023/10/15 12:29:55;;;;;;;;;;;12.20;99.90;;;;;;5104545;28;19982;-31
2023/10/15 12:32:22;;;;;;;;;;;12.20;99.90;;;;;;5115183;28;20004;-31
2023/10/15 12:34:48;;;;;;;;;;;12.30;99.90;;;;;;5116128;28;19938;-31
2023/10/15 12:37:16;;;;;;;;;;;12.40;99.90;;;;;;5096369;28;19934;-31
2023/10/15 12:39:44;;;;;;;;;;;12.40;99.90;;;;;;5097588;28;20011;-31
2023/10/15 12:42:11;;;;;;;;;;;12.50;99.90;;;;;;5097769;28;20362;-32
2023/10/15 12:44:39;;;;;;;;;;;12.50;99.90;;;;;;5097601;28;19994;-31
2023/10/15 12:47:08;;;;;;;;;;;12.50;99.90;;;;;;5096889;28;19934;-33
2023/10/15 12:49:35;;;;;;;;;;;12.50;99.90;;;;;;5097775;28;19928;-31
2023/10/15 12:52:02;;;;;;;;;;;12.30;99.90;;;;;;5095256;28;20387;-32
2023/10/15 12:54:30;;;;;;;;;;;12.10;99.90;;;;;;5115790;28;19924;-32
2023/10/15 12:56:56;;;;;;;;;;;11.90;99.90;;;;;;5096268;28;19993;-32
2023/10/15 12:59:23;;;;;;;;;;;11.70;99.90;;;;;;5097538;28;19966;-31
2023/10/15 13:01:50;;;;;;;;;;;11.50;99.90;;;;;;5096194;28;19949;-32
2023/10/15 13:04:17;;;;;;;;;;;11.30;99.90;;;;;;5097002;28;19974;-32
2023/10/15 13:06:43;;;;;;;;;;;11.20;99.90;;;;;;5096325;28;19927;-32
2023/10/15 13:09:18;;;;;;;;;;;11.10;99.90;;;;;;5097170;28;20430;-32
2023/10/15 13:11:46;;;;;;;;;;;11.10;99.90;;;;;;5113162;28;20339;-31
2023/10/15 13:14:13;;;;;;;;;;;11.00;99.90;;;;;;5096901;28;19981;-32
2023/10/15 13:16:40;;;;;;;;;;;11.00;99.90;;;;;;5114155;28;20380;-32
2023/10/15 13:19:07;;;;;;;;;;;11.00;99.90;;;;;;5111535;28;20337;-32
2023/10/15 13:21:35;;;;;;;;;;;11.10;99.90;;;;;;5096226;28;19951;-32
2023/10/15 13:24:02;;;;;;;;;;;11.30;99.90;;;;;;5114734;28;20337;-32
2023/10/15 13:26:29;;;;;;;;;;;11.30;99.90;;;;;;5113286;28;19923;-31
2023/10/15 13:28:57;;;;;;;;;;;11.40;99.90;;;;;;5092975;28;19958;-32
2023/10/15 13:31:23;;;;;;;;;;;11.60;99.90;;;;;;5095621;28;19924;-31
2023/10/15 13:33:50;;;;;;;;;;;11.70;99.90;;;;;;5096548;28;19958;-31
2023/10/15 13:36:17;;;;;;;;;;;11.80;99.90;;;;;;5114827;28;19928;-31
2023/10/15 13:38:43;;;;;;;;;;;11.80;99.90;;;;;;5095720;28;20438;-33
2023/10/15 13:41:10;;;;;;;;;;;11.80;99.90;;;;;;5112414;28;20281;-32
2023/10/15 13:43:37;;;;;;;;;;;11.70;99.90;;;;;;5114865;28;20346;-32
2023/10/15 13:46:05;;;;;;;;;;;11.70;99.90;;;;;;5114707;28;20299;-32
2023/10/15 13:48:31;;;;;;;;;;;11.60;99.90;;;;;;5114691;28;19930;-31
2023/10/15 13:50:58;;;;;;;;;;;11.50;99.90;;;;;;5096969;28;20042;-31
2023/10/15 13:53:25;;;;;;;;;;;11.50;99.90;;;;;;5094920;28;19923;-31
2023/10/15 13:55:52;;;;;;;;;;;11.40;99.90;;;;;;5094190;28;19924;-31
2023/10/15 13:58:19;;;;;;;;;;;11.50;99.90;;;;;;5096260;28;20525;-32
2023/10/15 14:00:46;;;;;;;;;;;11.50;99.90;;;;;;5114421;28;19924;-31
2023/10/15 14:03:15;;;;;;;;;;;11.60;99.90;;;;;;5114900;28;19969;-31
2023/10/15 14:05:43;;;;;;;;;;;11.70;99.90;;;;;;5096308;28;19928;-31
2023/10/15 14:08:09;;;;;;;;;;;11.70;99.90;;;;;;5095013;28;19930;-32
2023/10/15 14:10:36;;;;;;;;;;;11.70;99.90;;;;;;5112392;28;19930;-32
2023/10/15 14:13:05;;;;;;;;;;;11.70;99.90;;;;;;5094047;28;19972;-32
2023/10/15 14:15:32;;;;;;;;;;;11.70;99.90;;;;;;5111670;28;19957;-31
2023/10/15 14:17:59;;;;;;;;;;;11.70;99.90;;;;;;5094689;28;19962;-32
2023/10/15 14:20:28;;;;;;;;;;;11.70;99.90;;;;;;5093971;28;19927;-31
2023/10/15 14:22:57;;;;;;;;;;;11.70;99.90;;;;;;5094248;28;19966;-32
2023/10/15 14:25:24;;;;;;;;;;;11.60;99.90;;;;;;5094902;28;19935;-31
2023/10/15 14:27:51;;;;;;;;;;;11.50;99.90;;;;;;5094506;28;19954;-31
2023/10/15 14:30:17;;;;;;;;;;;11.40;99.90;;;;;;5110632;28;20436;-32
2023/10/15 14:32:44;;;;;;;;;;;11.30;99.90;;;;;;5112332;28;20352;-32